createdAt,value
2022-08-03T00:01:22.525Z,5.15
2022-08-03T00:04:14.503Z,4.78
2022-08-03T00:07:03.976Z,5.15
2022-08-03T00:09:53.496Z,4.88
2022-08-03T00:12:43.090Z,5.00
2022-08-03T00:15:32.695Z,4.78
2022-08-03T00:18:22.066Z,4.43
2022-08-03T00:21:12.610Z,4.43
2022-08-03T00:24:02.583Z,5.00
2022-08-03T00:26:51.939Z,5.03
2022-08-03T00:29:59.680Z,4.55
2022-08-03T00:32:51.660Z,5.03
2022-08-03T00:35:50.613Z,4.90
2022-08-03T00:38:40.779Z,4.68
2022-08-03T00:41:30.349Z,5.13
2022-08-03T00:44:19.679Z,4.55
2022-08-03T00:47:11.311Z,4.60
2022-08-03T00:50:00.698Z,4.20
2022-08-03T00:52:53.009Z,4.88
2022-08-03T00:55:43.884Z,4.60
2022-08-03T00:58:33.398Z,4.53
2022-08-03T01:01:22.872Z,4.45
2022-08-03T01:04:12.599Z,4.72
2022-08-03T01:07:31.499Z,4.28
2022-08-03T01:10:39.488Z,4.97
2022-08-03T01:14:03.525Z,4.63
2022-08-03T01:17:08.769Z,4.40
2022-08-03T01:20:05.943Z,4.68
2022-08-03T01:23:14.029Z,4.60
2022-08-03T01:26:09.104Z,4.75
2022-08-03T01:29:01.384Z,4.28
2022-08-03T01:32:53.495Z,5.30
2022-08-03T01:35:21.331Z,4.72
2022-08-03T01:38:19.715Z,4.60
2022-08-03T01:41:27.138Z,4.50
2022-08-03T01:44:29.640Z,4.80
2022-08-03T01:47:22.796Z,4.50
2022-08-03T01:50:13.575Z,4.75
2022-08-03T01:53:05.568Z,4.65
2022-08-03T01:55:57.406Z,4.32
2022-08-03T01:58:49.949Z,4.70
2022-08-03T02:02:28.361Z,5.25
2022-08-03T02:04:52.743Z,4.60
2022-08-03T02:07:43.708Z,4.93
2022-08-03T02:10:36.022Z,4.55
2022-08-03T02:13:27.068Z,4.25
2022-08-03T02:16:18.848Z,4.30
2022-08-03T02:19:09.789Z,4.53
2022-08-03T02:22:01.353Z,4.25
2022-08-03T02:27:47.622Z,4.70
2022-08-03T02:30:40.152Z,4.30
2022-08-03T02:33:33.560Z,4.63
2022-08-03T02:36:28.195Z,4.78
2022-08-03T02:39:25.643Z,4.80
2022-08-03T02:42:16.895Z,4.53
2022-08-03T02:45:14.550Z,3.85
2022-08-03T02:48:06.745Z,4.63
2022-08-03T02:50:59.684Z,4.45
2022-08-03T02:53:49.987Z,4.45
2022-08-03T02:56:40.613Z,4.93
2022-08-03T02:59:32.209Z,4.40
2022-08-03T03:02:22.465Z,4.70
2022-08-03T03:05:54.927Z,4.43
2022-08-03T03:08:26.017Z,4.78
2022-08-03T03:11:18.715Z,4.72
2022-08-03T03:14:10.674Z,4.53
2022-08-03T03:17:00.349Z,4.20
2022-08-03T03:19:52.442Z,4.78
2022-08-03T03:25:35.790Z,4.50
2022-08-03T03:28:26.529Z,4.40
2022-08-03T03:31:15.948Z,4.43
2022-08-03T03:34:06.294Z,4.32
2022-08-03T03:36:56.844Z,4.30
2022-08-03T03:39:46.370Z,4.45
2022-08-03T03:42:37.149Z,4.38
2022-08-03T03:45:27.139Z,4.60
2022-08-03T03:48:16.832Z,4.55
2022-08-03T03:51:07.136Z,4.68
2022-08-03T03:54:00.986Z,4.45
2022-08-03T03:56:50.610Z,4.07
2022-08-03T03:59:40.997Z,4.57
2022-08-03T04:02:30.862Z,3.72
2022-08-03T04:05:40.915Z,4.18
2022-08-03T04:08:52.142Z,4.07
2022-08-03T04:11:48.618Z,4.53
2022-08-03T04:14:41.264Z,4.13
2022-08-03T04:17:32.665Z,4.28
2022-08-03T04:20:24.305Z,4.15
2022-08-03T04:23:15.964Z,3.42
2022-08-03T04:26:10.553Z,3.40
2022-08-03T04:29:01.381Z,3.92
2022-08-03T04:31:52.787Z,3.95
2022-08-03T04:34:42.343Z,4.00
2022-08-03T04:37:42.742Z,3.47
2022-08-03T04:40:37.172Z,3.60
2022-08-03T04:43:28.761Z,3.38
2022-08-03T04:46:20.661Z,3.85
2022-08-03T04:49:10.468Z,3.72
2022-08-03T04:52:01.114Z,3.67
2022-08-03T04:54:51.123Z,3.63
2022-08-03T04:57:41.006Z,3.58
2022-08-03T05:00:30.723Z,3.42
2022-08-03T05:03:24.988Z,3.30
2022-08-03T05:06:16.187Z,3.53
2022-08-03T05:09:05.905Z,3.13
2022-08-03T05:11:56.538Z,3.30
2022-08-03T05:14:45.974Z,3.40
2022-08-03T05:17:35.811Z,3.35
2022-08-03T05:20:25.201Z,3.10
2022-08-03T05:23:14.661Z,3.35
2022-08-03T05:26:04.449Z,3.67
2022-08-03T05:28:54.127Z,3.17
2022-08-03T05:31:43.862Z,3.47
2022-08-03T05:34:33.403Z,3.47
2022-08-03T05:37:22.654Z,3.05
2022-08-03T05:40:12.988Z,3.35
2022-08-03T05:43:03.026Z,3.20
2022-08-03T05:46:11.807Z,3.58
2022-08-03T05:49:01.929Z,3.25
2022-08-03T05:52:00.431Z,3.00
2022-08-03T05:55:02.393Z,3.10
2022-08-03T05:57:52.062Z,3.60
2022-08-03T06:00:45.906Z,3.90
2022-08-03T06:03:35.168Z,3.42
2022-08-03T06:06:25.865Z,3.33
2022-08-03T06:12:06.306Z,3.40
2022-08-03T06:14:55.831Z,3.38
2022-08-03T06:17:50.582Z,3.25
2022-08-03T06:20:39.878Z,3.42
2022-08-03T06:23:53.074Z,3.17
2022-08-03T06:26:38.744Z,3.22
2022-08-03T06:29:28.217Z,3.45
2022-08-03T06:32:17.916Z,3.17
2022-08-03T06:35:11.705Z,3.40
2022-08-03T06:38:01.391Z,3.35
2022-08-03T06:40:51.019Z,3.47
2022-08-03T06:44:02.619Z,3.40
2022-08-03T06:46:50.022Z,3.30
2022-08-03T06:49:39.462Z,3.10
2022-08-03T06:52:37.704Z,2.75
2022-08-03T06:55:29.083Z,3.25
2022-08-03T06:58:18.502Z,3.17
2022-08-03T07:01:07.842Z,3.28
2022-08-03T07:03:57.346Z,3.33
2022-08-03T07:06:46.824Z,3.00
2022-08-03T07:09:36.283Z,3.22
2022-08-03T07:12:26.101Z,3.28
2022-08-03T07:15:20.600Z,3.42
2022-08-03T07:18:29.705Z,3.30
2022-08-03T07:21:20.370Z,3.25
2022-08-03T07:24:09.840Z,3.25
2022-08-03T07:26:59.088Z,3.40
2022-08-03T07:29:48.503Z,3.00
2022-08-03T07:32:50.468Z,3.13
2022-08-03T07:38:31.889Z,3.30
2022-08-03T07:41:21.093Z,3.35
2022-08-03T07:44:10.663Z,2.90
2022-08-03T07:47:00.512Z,3.40
2022-08-03T07:49:53.107Z,3.30
2022-08-03T07:52:53.801Z,3.20
2022-08-03T07:55:43.420Z,2.92
2022-08-03T07:58:51.224Z,2.90
2022-08-03T08:01:58.775Z,3.13
2022-08-03T08:04:48.162Z,3.28
2022-08-03T08:07:37.483Z,3.20
2022-08-03T08:10:27.093Z,3.30
2022-08-03T08:13:16.475Z,3.30
2022-08-03T08:16:06.585Z,2.92
2022-08-03T08:18:55.783Z,3.03
2022-08-03T08:21:53.448Z,3.40
2022-08-03T08:24:51.523Z,3.00
2022-08-03T08:28:30.080Z,2.88
2022-08-03T08:30:59.464Z,3.03
2022-08-03T08:34:03.770Z,3.05
2022-08-03T08:36:53.718Z,3.55
2022-08-03T08:39:43.381Z,3.17
2022-08-03T08:42:33.764Z,3.42
2022-08-03T08:45:23.474Z,3.25
2022-08-03T08:48:15.782Z,2.90
2022-08-03T08:51:05.242Z,3.20
2022-08-03T08:53:55.647Z,3.83
2022-08-03T08:56:45.880Z,3.10
2022-08-03T08:59:49.105Z,2.70
2022-08-03T09:02:38.930Z,3.13
2022-08-03T09:05:55.112Z,3.38
2022-08-03T09:08:38.910Z,3.10
2022-08-03T09:11:53.198Z,3.22
2022-08-03T09:14:49.726Z,3.17
2022-08-03T09:17:51.140Z,3.10
2022-08-03T09:20:41.259Z,3.08
2022-08-03T09:24:07.067Z,3.05
2022-08-03T09:26:59.744Z,3.13
2022-08-03T09:29:53.797Z,2.90
2022-08-03T09:32:45.863Z,3.08
2022-08-03T09:35:57.857Z,2.72
2022-08-03T09:39:08.148Z,3.08
2022-08-03T09:42:08.609Z,2.80
2022-08-03T09:44:59.017Z,2.83
2022-08-03T09:47:48.287Z,3.10
2022-08-03T09:50:56.773Z,3.10
2022-08-03T09:53:57.279Z,3.33
2022-08-03T09:56:49.338Z,2.78
2022-08-03T09:59:41.098Z,3.00
2022-08-03T10:02:30.614Z,2.92
2022-08-03T10:05:34.126Z,2.90
2022-08-03T10:08:23.793Z,2.95
2022-08-03T10:11:13.198Z,2.90
2022-08-03T10:14:10.066Z,3.08
2022-08-03T10:16:59.715Z,3.10
2022-08-03T10:19:49.655Z,3.10
2022-08-03T10:22:42.627Z,2.60
2022-08-03T10:25:33.297Z,3.35
2022-08-03T10:28:24.307Z,2.90
2022-08-03T10:31:15.081Z,2.80
2022-08-03T10:34:07.891Z,2.90
2022-08-03T10:37:00.150Z,3.00
2022-08-03T10:42:45.891Z,3.20
2022-08-03T10:45:41.653Z,3.00
2022-08-03T10:48:33.974Z,2.92
2022-08-03T10:51:24.134Z,3.20
2022-08-03T10:55:11.086Z,2.95
2022-08-03T10:58:01.395Z,3.20
2022-08-03T11:00:54.668Z,2.85
2022-08-03T11:03:57.702Z,2.92
2022-08-03T11:06:47.939Z,3.17
2022-08-03T11:09:44.545Z,2.85
2022-08-03T11:12:35.061Z,3.25
2022-08-03T11:15:35.540Z,3.00
2022-08-03T11:18:26.922Z,2.95
2022-08-03T11:21:16.501Z,2.90
2022-08-03T11:24:06.788Z,3.08
2022-08-03T11:27:19.654Z,2.72
2022-08-03T11:30:10.475Z,2.80
2022-08-03T11:33:00.693Z,2.95
2022-08-03T11:36:02.873Z,2.90
2022-08-03T11:39:16.753Z,2.90
2022-08-03T11:42:27.957Z,3.00
2022-08-03T11:45:17.782Z,3.10
2022-08-03T11:48:18.255Z,3.13
2022-08-03T11:51:09.718Z,2.88
2022-08-03T11:54:05.250Z,3.00
2022-08-03T11:56:54.546Z,2.80
2022-08-03T11:59:43.862Z,2.80
2022-08-03T12:02:33.193Z,2.88
2022-08-03T12:05:22.912Z,3.00
2022-08-03T12:08:14.136Z,2.80
2022-08-03T12:11:07.677Z,2.78
2022-08-03T12:14:44.586Z,2.80
2022-08-03T12:17:06.237Z,2.88
2022-08-03T12:19:55.425Z,3.00
2022-08-03T12:22:44.536Z,2.80
2022-08-03T12:25:39.558Z,3.13
2022-08-03T12:28:36.789Z,2.95
2022-08-03T12:31:27.807Z,2.60
2022-08-03T12:34:17.587Z,2.85
2022-08-03T12:37:29.870Z,3.13
2022-08-03T12:40:20.541Z,3.85
2022-08-03T12:43:16.219Z,3.20
2022-08-03T12:46:13.714Z,2.90
2022-08-03T12:49:16.269Z,3.17
2022-08-03T12:52:07.604Z,3.22
2022-08-03T12:55:02.046Z,3.30
2022-08-03T12:57:51.568Z,3.30
2022-08-03T13:00:41.251Z,3.10
2022-08-03T13:03:42.597Z,3.35
2022-08-03T13:06:32.422Z,3.67
2022-08-03T13:09:21.623Z,3.08
2022-08-03T13:12:18.690Z,3.10
2022-08-03T13:15:09.730Z,3.10
2022-08-03T13:17:59.068Z,2.90
2022-08-03T13:20:48.208Z,2.90
2022-08-03T13:23:37.715Z,3.03
2022-08-03T13:26:26.871Z,2.72
2022-08-03T13:29:16.151Z,3.10
2022-08-03T13:32:06.039Z,3.08
2022-08-03T13:34:55.501Z,2.92
2022-08-03T13:37:48.916Z,2.95
2022-08-03T13:40:41.547Z,2.72
2022-08-03T13:43:31.234Z,3.00
2022-08-03T13:46:21.327Z,3.05
2022-08-03T13:49:10.691Z,3.10
2022-08-03T13:52:00.134Z,2.83
2022-08-03T13:54:49.400Z,2.97
2022-08-03T13:58:05.729Z,2.80
2022-08-03T14:00:48.588Z,3.05
2022-08-03T14:03:38.103Z,2.83
2022-08-03T14:06:27.405Z,2.75
2022-08-03T14:09:16.998Z,3.05
2022-08-03T14:12:08.063Z,3.20
2022-08-03T14:15:01.428Z,2.70
2022-08-03T14:17:51.143Z,3.03
2022-08-03T14:20:50.114Z,3.38
2022-08-03T14:23:41.229Z,3.22
2022-08-03T14:26:31.709Z,2.90
2022-08-03T14:29:20.876Z,3.08
2022-08-03T14:32:13.104Z,2.90
2022-08-03T14:35:04.306Z,2.92
2022-08-03T14:37:53.740Z,2.85
2022-08-03T14:40:43.291Z,3.03
2022-08-03T14:43:34.210Z,3.35
2022-08-03T14:46:23.906Z,3.20
2022-08-03T14:50:38.587Z,3.22
2022-08-03T14:52:22.136Z,3.17
2022-08-03T14:55:11.479Z,3.05
2022-08-03T14:58:03.752Z,3.20
2022-08-03T15:00:54.898Z,2.90
2022-08-03T15:03:45.053Z,3.20
2022-08-03T15:06:34.467Z,3.00
2022-08-03T15:09:24.250Z,2.90
2022-08-03T15:12:13.774Z,2.88
2022-08-03T15:15:03.230Z,3.10
2022-08-03T15:18:00.035Z,2.80
2022-08-03T15:20:51.412Z,3.10
2022-08-03T15:23:41.807Z,3.10
2022-08-03T15:26:37.794Z,3.05
2022-08-03T15:30:07.688Z,2.75
2022-08-03T15:32:39.591Z,2.80
2022-08-03T15:35:29.930Z,2.85
2022-08-03T15:38:19.174Z,2.80
2022-08-03T15:41:10.935Z,2.80
2022-08-03T15:44:07.456Z,3.05
2022-08-03T15:46:58.546Z,2.70
2022-08-03T15:49:47.712Z,2.70
2022-08-03T15:52:36.858Z,3.10
2022-08-03T15:55:26.191Z,2.85
2022-08-03T15:59:04.202Z,2.75
2022-08-03T16:01:26.183Z,2.90
2022-08-03T16:04:15.642Z,2.78
2022-08-03T16:07:05.376Z,2.80
2022-08-03T16:09:54.573Z,2.60
2022-08-03T16:12:44.225Z,3.05
2022-08-03T16:15:33.793Z,2.90
2022-08-03T16:18:28.030Z,3.00
2022-08-03T16:21:20.002Z,2.50
2022-08-03T16:24:17.479Z,2.70
2022-08-03T16:27:17.347Z,2.60
2022-08-03T16:30:23.456Z,2.78
2022-08-03T16:33:16.862Z,2.70
2022-08-03T16:36:07.192Z,2.67
2022-08-03T16:38:56.492Z,2.67
2022-08-03T16:41:54.189Z,2.67
2022-08-03T16:44:50.245Z,2.80
2022-08-03T16:47:39.349Z,2.60
2022-08-03T16:50:29.558Z,2.50
2022-08-03T16:54:08.184Z,2.83
2022-08-03T16:56:28.177Z,2.50
2022-08-03T16:59:18.270Z,2.90
2022-08-03T17:02:10.382Z,2.90
2022-08-03T17:05:01.638Z,2.80
2022-08-03T17:07:53.957Z,2.80
2022-08-03T17:10:45.355Z,2.60
2022-08-03T17:13:39.884Z,2.95
2022-08-03T17:16:30.941Z,2.70
2022-08-03T17:19:23.720Z,2.90
2022-08-03T17:22:21.656Z,2.95
2022-08-03T17:25:22.020Z,2.75
2022-08-03T17:28:51.173Z,2.67
2022-08-03T17:31:48.542Z,2.65
2022-08-03T17:34:44.115Z,2.53
2022-08-03T17:37:57.829Z,3.00
2022-08-03T17:40:48.030Z,2.75
2022-08-03T17:43:44.365Z,2.50
2022-08-03T17:46:52.617Z,2.80
2022-08-03T17:49:42.365Z,2.70
2022-08-03T17:52:42.833Z,2.70
2022-08-03T17:55:56.224Z,2.70
2022-08-03T17:59:11.496Z,2.63
2022-08-03T18:02:55.542Z,2.92
2022-08-03T18:06:10.616Z,2.55
2022-08-03T18:09:05.164Z,2.70
2022-08-03T18:12:19.874Z,2.90
2022-08-03T18:15:21.163Z,2.88
2022-08-03T18:18:15.819Z,2.80
2022-08-03T18:21:09.323Z,2.70
2022-08-03T18:24:06.920Z,2.83
2022-08-03T18:27:02.544Z,3.05
2022-08-03T18:29:53.843Z,2.97
2022-08-03T18:33:01.075Z,3.03
2022-08-03T18:35:55.899Z,2.80
2022-08-03T18:38:46.513Z,2.63
2022-08-03T18:41:37.389Z,2.80
2022-08-03T18:44:53.276Z,2.75
2022-08-03T18:48:20.318Z,2.88
2022-08-03T18:54:48.909Z,3.20
2022-08-03T18:58:18.224Z,2.70
2022-08-03T19:01:57.420Z,2.80
2022-08-03T19:04:33.606Z,2.65
2022-08-03T19:07:28.796Z,3.05
2022-08-03T19:10:30.791Z,2.95
2022-08-03T19:13:36.445Z,3.28
2022-08-03T19:16:40.482Z,3.03
2022-08-03T19:19:44.002Z,3.00
2022-08-03T19:22:35.247Z,3.00
2022-08-03T19:25:34.786Z,3.28
2022-08-03T19:28:29.603Z,3.05
2022-08-03T19:31:20.489Z,3.00
2022-08-03T19:34:10.952Z,2.78
2022-08-03T19:37:01.675Z,3.30
2022-08-03T19:39:56.692Z,3.00
2022-08-03T19:42:47.650Z,3.28
2022-08-03T19:46:05.183Z,3.00
2022-08-03T19:48:59.594Z,3.00
2022-08-03T19:51:58.560Z,3.05
2022-08-03T19:54:55.269Z,3.03
2022-08-03T19:57:49.601Z,3.00
2022-08-03T20:00:41.168Z,3.03
2022-08-03T20:03:42.956Z,3.20
2022-08-03T20:06:35.455Z,3.05
2022-08-03T20:09:30.511Z,3.22
2022-08-03T20:12:20.580Z,3.25
2022-08-03T20:15:22.393Z,3.15
2022-08-03T20:18:20.621Z,3.00
2022-08-03T20:21:14.759Z,3.50
2022-08-03T20:24:23.793Z,2.97
2022-08-03T20:27:20.149Z,3.10
2022-08-03T20:30:09.990Z,3.10
2022-08-03T20:32:59.444Z,3.00
2022-08-03T20:35:50.196Z,3.22
2022-08-03T20:38:43.785Z,3.28
2022-08-03T20:41:36.656Z,3.00
2022-08-03T20:44:26.117Z,3.10
2022-08-03T20:47:23.831Z,3.15
2022-08-03T20:50:13.892Z,3.00
2022-08-03T20:53:06.010Z,3.10
2022-08-03T20:56:02.190Z,2.78
2022-08-03T20:58:52.718Z,3.15
2022-08-03T21:01:41.994Z,3.17
2022-08-03T21:04:33.728Z,3.20
2022-08-03T21:08:04.354Z,3.13
2022-08-03T21:10:42.140Z,3.10
2022-08-03T21:13:00.575Z,3.00
2022-08-03T21:13:46.362Z,3.00
2022-08-03T21:16:40.242Z,3.10
2022-08-03T21:19:32.147Z,3.25
2022-08-03T21:22:24.127Z,3.45
2022-08-03T21:25:17.027Z,3.15
2022-08-03T21:28:08.592Z,3.50
2022-08-03T21:31:00.390Z,3.10
2022-08-03T21:33:50.001Z,3.05
2022-08-03T21:36:39.396Z,2.90
2022-08-03T21:39:29.614Z,3.20
2022-08-03T21:42:20.134Z,3.15
2022-08-03T21:45:16.904Z,3.10
2022-08-03T21:48:07.375Z,3.00
2022-08-03T21:50:56.643Z,2.97
2022-08-03T21:54:03.926Z,3.10
2022-08-03T21:56:57.270Z,3.08
2022-08-03T21:59:56.283Z,2.60
2022-08-03T22:02:59.381Z,3.13
2022-08-03T22:06:05.045Z,3.17
2022-08-03T22:08:55.256Z,3.00
2022-08-03T22:11:48.910Z,3.10
2022-08-03T22:14:39.656Z,2.78
2022-08-03T22:17:54.796Z,2.90
2022-08-03T22:20:39.604Z,3.17
2022-08-03T22:23:29.077Z,3.05
2022-08-03T22:26:35.125Z,3.50
2022-08-03T22:29:25.660Z,3.50
2022-08-03T22:32:14.866Z,3.30
2022-08-03T22:35:06.641Z,3.30
2022-08-03T22:37:58.801Z,3.28
2022-08-03T22:43:38.955Z,3.30
2022-08-03T22:46:30.120Z,3.10
2022-08-03T22:49:20.011Z,2.83
2022-08-03T22:52:11.804Z,3.10
2022-08-03T22:55:05.057Z,3.28
2022-08-03T22:57:56.175Z,3.33
2022-08-03T23:00:58.733Z,3.20
2022-08-03T23:06:52.978Z,3.00
2022-08-03T23:09:46.159Z,2.92
2022-08-03T23:12:40.867Z,3.30
2022-08-03T23:15:31.606Z,3.03
2022-08-03T23:18:24.062Z,3.03
2022-08-03T23:21:15.192Z,3.15
2022-08-03T23:24:24.572Z,2.80
2022-08-03T23:27:19.527Z,2.90
2022-08-03T23:30:10.943Z,3.10
2022-08-03T23:33:04.191Z,2.95
2022-08-03T23:36:28.779Z,3.20
2022-08-03T23:39:11.252Z,3.22
2022-08-03T23:42:03.084Z,3.22
2022-08-03T23:44:56.709Z,3.17
2022-08-03T23:47:51.204Z,2.95
2022-08-03T23:50:52.122Z,3.03
2022-08-03T23:54:04.502Z,2.92
